createdAt,value
2019-02-15T00:01:25.906Z,136.00
2019-02-15T00:03:57.322Z,164.60
2019-02-15T00:06:28.512Z,150.40
2019-02-15T00:09:00.323Z,144.60
2019-02-15T00:11:32.073Z,148.00
2019-02-15T00:14:03.541Z,138.40
2019-02-15T00:16:34.817Z,149.60
2019-02-15T00:19:31.425Z,144.00
2019-02-15T00:22:03.268Z,139.40
2019-02-15T00:24:34.428Z,111.80
2019-02-15T00:27:06.632Z,147.80
2019-02-15T00:29:37.803Z,148.00
2019-02-15T00:32:09.101Z,134.20
2019-02-15T00:34:40.234Z,155.60
2019-02-15T00:37:11.845Z,137.20
2019-02-15T00:39:42.928Z,140.00
2019-02-15T00:42:14.337Z,141.20
2019-02-15T00:44:45.681Z,138.60
2019-02-15T00:47:34.470Z,147.20
2019-02-15T00:50:27.424Z,144.40
2019-02-15T00:53:23.951Z,137.40
2019-02-15T00:56:12.711Z,151.60
2019-02-15T00:59:16.114Z,145.80
2019-02-15T01:02:06.312Z,140.20
2019-02-15T01:05:12.464Z,144.40
2019-02-15T01:08:01.022Z,151.20
2019-02-15T01:10:54.173Z,157.60
2019-02-15T01:13:31.122Z,166.60
2019-02-15T01:15:59.627Z,169.80
2019-02-15T01:18:31.149Z,160.40
2019-02-15T01:21:02.474Z,156.60
2019-02-15T01:23:33.651Z,158.80
2019-02-15T01:26:27.035Z,168.00
2019-02-15T01:29:19.787Z,169.60
2019-02-15T01:32:08.447Z,169.20
2019-02-15T01:35:04.986Z,170.00
2019-02-15T01:38:01.313Z,158.20
2019-02-15T01:40:54.052Z,153.80
2019-02-15T01:43:40.045Z,170.80
2019-02-15T01:46:19.988Z,176.20
2019-02-15T01:48:51.588Z,166.80
2019-02-15T01:51:22.749Z,179.20
2019-02-15T01:53:54.222Z,179.80
2019-02-15T01:56:25.412Z,176.20
2019-02-15T01:58:56.933Z,179.00
2019-02-15T02:01:29.226Z,190.20
2019-02-15T02:04:01.800Z,181.20
2019-02-15T02:06:34.049Z,193.20
2019-02-15T02:09:05.573Z,158.80
2019-02-15T02:11:37.413Z,177.60
2019-02-15T02:14:08.566Z,177.80
2019-02-15T02:16:39.919Z,158.00
2019-02-15T02:19:11.037Z,182.00
2019-02-15T02:21:42.274Z,164.00
2019-02-15T02:24:13.621Z,166.00
2019-02-15T02:26:44.923Z,155.60
2019-02-15T02:29:16.275Z,166.40
2019-02-15T02:31:47.842Z,163.00
2019-02-15T02:34:19.145Z,161.60
2019-02-15T02:36:55.147Z,166.80
2019-02-15T02:39:27.135Z,160.80
2019-02-15T02:41:58.491Z,161.60
2019-02-15T02:44:29.746Z,164.60
2019-02-15T02:47:01.255Z,164.00
2019-02-15T02:49:33.932Z,170.00
2019-02-15T02:52:05.515Z,183.00
2019-02-15T02:54:36.955Z,198.20
2019-02-15T02:57:08.296Z,191.80
2019-02-15T02:59:39.915Z,182.80
2019-02-15T03:02:11.294Z,183.60
2019-02-15T03:04:42.457Z,173.80
2019-02-15T03:07:14.062Z,173.80
2019-02-15T03:09:45.317Z,157.60
2019-02-15T03:12:16.638Z,155.00
2019-02-15T03:14:48.112Z,153.00
2019-02-15T03:17:19.672Z,144.60
2019-02-15T03:19:51.502Z,159.80
2019-02-15T03:22:22.973Z,153.80
2019-02-15T03:24:54.532Z,168.00
2019-02-15T03:27:25.964Z,154.60
2019-02-15T03:29:57.587Z,153.40
2019-02-15T03:32:29.098Z,162.00
2019-02-15T03:35:00.805Z,157.00
2019-02-15T03:37:54.437Z,153.20
2019-02-15T03:40:29.762Z,151.00
2019-02-15T03:43:01.435Z,147.60
2019-02-15T03:45:33.033Z,158.80
2019-02-15T03:48:04.709Z,156.60
2019-02-15T03:50:36.430Z,171.80
2019-02-15T03:53:08.060Z,169.40
2019-02-15T03:55:39.668Z,165.00
2019-02-15T03:58:11.112Z,166.00
2019-02-15T04:00:42.859Z,150.60
2019-02-15T04:03:14.448Z,159.00
2019-02-15T04:05:45.935Z,171.60
2019-02-15T04:08:17.579Z,153.00
2019-02-15T04:10:49.153Z,168.40
2019-02-15T04:13:20.704Z,149.00
2019-02-15T04:15:52.258Z,171.40
2019-02-15T04:18:23.991Z,165.80
2019-02-15T04:20:56.855Z,178.80
2019-02-15T04:23:28.388Z,166.80
2019-02-15T04:26:00.070Z,157.40
2019-02-15T04:28:32.001Z,153.00
2019-02-15T04:31:03.438Z,158.80
2019-02-15T04:33:35.602Z,164.60
2019-02-15T04:36:07.263Z,162.20
2019-02-15T04:38:38.893Z,174.20
2019-02-15T04:41:10.465Z,173.40
2019-02-15T04:43:42.283Z,164.60
2019-02-15T04:46:13.530Z,153.20
2019-02-15T04:48:45.235Z,173.20
2019-02-15T04:51:17.141Z,181.80
2019-02-15T04:53:48.456Z,180.00
2019-02-15T04:56:20.219Z,179.60
2019-02-15T04:58:51.612Z,162.80
2019-02-15T05:01:23.192Z,172.60
2019-02-15T05:03:54.901Z,193.00
2019-02-15T05:06:26.633Z,167.80
2019-02-15T05:08:58.162Z,197.40
2019-02-15T05:11:29.846Z,204.40
2019-02-15T05:14:01.886Z,203.20
2019-02-15T05:16:33.390Z,186.80
2019-02-15T05:19:05.130Z,173.60
2019-02-15T05:21:36.741Z,176.00
2019-02-15T05:24:08.324Z,172.40
2019-02-15T05:26:39.829Z,165.60
2019-02-15T05:29:11.473Z,162.40
2019-02-15T05:31:43.026Z,172.80
2019-02-15T05:34:14.451Z,186.40
2019-02-15T05:36:46.028Z,171.60
2019-02-15T05:39:17.845Z,184.80
2019-02-15T05:41:49.295Z,178.40
2019-02-15T05:44:21.356Z,187.40
2019-02-15T05:46:52.833Z,176.20
2019-02-15T05:49:24.424Z,168.00
2019-02-15T05:51:56.136Z,182.40
2019-02-15T05:54:27.908Z,166.20
2019-02-15T05:56:59.452Z,189.60
2019-02-15T05:59:30.898Z,172.40
2019-02-15T06:02:02.622Z,179.80
2019-02-15T06:04:34.128Z,165.20
2019-02-15T06:07:05.727Z,168.60
2019-02-15T06:09:37.101Z,160.20
2019-02-15T06:12:08.763Z,180.60
2019-02-15T06:14:40.684Z,179.00
2019-02-15T06:17:12.457Z,172.00
2019-02-15T06:19:43.966Z,171.20
2019-02-15T06:22:15.729Z,164.00
2019-02-15T06:24:47.310Z,141.60
2019-02-15T06:27:18.840Z,187.60
2019-02-15T06:29:50.488Z,174.00
2019-02-15T06:32:22.046Z,180.40
2019-02-15T06:34:53.982Z,171.40
2019-02-15T06:37:25.440Z,181.00
2019-02-15T06:39:56.936Z,157.60
2019-02-15T06:42:28.781Z,188.20
2019-02-15T06:45:00.601Z,190.20
2019-02-15T06:47:32.531Z,177.00
2019-02-15T06:50:04.286Z,183.80
2019-02-15T06:52:36.241Z,183.00
2019-02-15T06:55:08.228Z,179.20
2019-02-15T06:57:39.820Z,176.40
2019-02-15T07:00:34.151Z,172.60
2019-02-15T07:03:25.470Z,183.20
2019-02-15T07:05:57.270Z,193.40
2019-02-15T07:08:28.782Z,187.60
2019-02-15T07:11:00.738Z,187.40
2019-02-15T07:13:32.495Z,194.20
2019-02-15T07:16:04.027Z,191.80
2019-02-15T07:18:35.962Z,178.20
2019-02-15T07:21:08.482Z,197.00
2019-02-15T07:23:40.255Z,185.40
2019-02-15T07:26:11.701Z,182.60
2019-02-15T07:28:43.188Z,183.60
2019-02-15T07:31:15.011Z,189.00
2019-02-15T07:33:46.584Z,199.40
2019-02-15T07:36:18.177Z,201.20
2019-02-15T07:38:49.764Z,173.80
2019-02-15T07:41:21.361Z,196.20
2019-02-15T07:43:53.106Z,195.20
2019-02-15T07:46:24.707Z,193.80
2019-02-15T07:48:56.256Z,197.80
2019-02-15T07:51:27.732Z,179.20
2019-02-15T07:53:59.654Z,192.80
2019-02-15T07:56:31.140Z,186.20
2019-02-15T07:59:02.985Z,186.00
2019-02-15T08:01:34.666Z,185.40
2019-02-15T08:04:06.912Z,184.00
2019-02-15T08:06:38.331Z,191.40
2019-02-15T08:09:12.529Z,190.00
2019-02-15T08:11:44.323Z,189.20
2019-02-15T08:14:17.592Z,181.80
2019-02-15T08:16:49.153Z,184.60
2019-02-15T08:19:21.293Z,206.00
2019-02-15T08:21:52.908Z,185.60
2019-02-15T08:24:25.033Z,195.80
2019-02-15T08:26:56.566Z,185.20
2019-02-15T08:29:28.484Z,189.20
2019-02-15T08:32:01.869Z,181.40
2019-02-15T08:34:33.615Z,173.80
2019-02-15T08:37:05.265Z,168.80
2019-02-15T08:39:37.166Z,160.60
2019-02-15T08:42:09.033Z,179.60
2019-02-15T08:44:40.664Z,182.40
2019-02-15T08:47:13.421Z,174.40
2019-02-15T08:49:45.645Z,160.80
2019-02-15T08:52:17.282Z,171.00
2019-02-15T08:54:48.800Z,176.20
2019-02-15T08:57:20.515Z,170.40
2019-02-15T08:59:52.266Z,172.80
2019-02-15T09:02:25.157Z,173.40
2019-02-15T09:04:56.985Z,154.20
2019-02-15T09:07:28.890Z,163.60
2019-02-15T09:10:00.394Z,169.20
2019-02-15T09:12:32.112Z,167.80
2019-02-15T09:15:04.136Z,166.80
2019-02-15T09:17:35.907Z,166.20
2019-02-15T09:20:08.462Z,170.40
2019-02-15T09:22:40.035Z,165.00
2019-02-15T09:25:12.399Z,145.75
2019-02-15T09:27:54.354Z,160.80
2019-02-15T09:30:26.462Z,156.60
2019-02-15T09:32:58.377Z,162.80
2019-02-15T09:35:29.939Z,159.40
2019-02-15T09:38:01.933Z,153.80
2019-02-15T09:40:33.650Z,160.80
2019-02-15T09:43:05.652Z,151.40
2019-02-15T09:45:37.428Z,156.20
2019-02-15T09:48:09.403Z,163.20
2019-02-15T09:50:41.222Z,150.40
2019-02-15T09:53:13.479Z,158.20
2019-02-15T09:55:45.660Z,143.80
2019-02-15T09:58:17.732Z,163.20
2019-02-15T10:00:51.272Z,153.60
2019-02-15T10:03:24.846Z,147.40
2019-02-15T10:05:59.306Z,154.20
2019-02-15T10:08:33.537Z,155.20
2019-02-15T10:11:07.802Z,157.80
2019-02-15T10:13:40.625Z,158.40
2019-02-15T10:16:14.148Z,146.40
2019-02-15T10:18:48.024Z,149.20
2019-02-15T10:21:22.362Z,155.60
2019-02-15T10:23:56.102Z,148.00
2019-02-15T10:26:29.936Z,155.60
2019-02-15T10:29:04.475Z,152.60
2019-02-15T10:31:36.845Z,151.60
2019-02-15T10:34:08.832Z,142.00
2019-02-15T10:36:40.556Z,156.00
2019-02-15T10:39:12.527Z,150.00
2019-02-15T10:41:44.771Z,157.20
2019-02-15T10:44:17.343Z,150.00
2019-02-15T10:46:49.046Z,159.40
2019-02-15T10:49:20.826Z,150.80
2019-02-15T10:51:52.760Z,160.00
2019-02-15T10:54:24.341Z,151.20
2019-02-15T10:56:56.196Z,155.20
2019-02-15T10:59:27.785Z,156.80
2019-02-15T11:02:04.236Z,144.20
2019-02-15T11:04:36.544Z,152.60
2019-02-15T11:07:10.423Z,150.20
2019-02-15T11:09:43.026Z,171.60
2019-02-15T11:12:15.472Z,153.20
2019-02-15T11:14:47.571Z,154.60
2019-02-15T11:17:19.999Z,152.80
2019-02-15T11:19:51.791Z,156.20
2019-02-15T11:22:25.091Z,141.20
2019-02-15T11:24:57.436Z,151.00
2019-02-15T11:27:29.408Z,148.00
2019-02-15T11:30:01.109Z,142.20
2019-02-15T11:32:33.129Z,151.40
2019-02-15T11:35:05.501Z,126.20
2019-02-15T11:37:37.269Z,148.00
2019-02-15T11:40:11.400Z,146.00
2019-02-15T11:42:43.503Z,154.60
2019-02-15T11:45:15.480Z,164.20
2019-02-15T11:48:14.098Z,143.40
2019-02-15T11:50:46.143Z,152.40
2019-02-15T11:53:18.224Z,161.00
2019-02-15T11:55:49.827Z,166.00
2019-02-15T11:58:21.897Z,135.20
2019-02-15T12:00:53.884Z,155.00
2019-02-15T12:03:25.752Z,157.60
2019-02-15T12:05:58.043Z,159.20
2019-02-15T12:08:30.061Z,156.60
2019-02-15T12:11:01.613Z,154.00
2019-02-15T12:13:34.740Z,151.00
2019-02-15T12:16:06.280Z,138.00
2019-02-15T12:18:38.119Z,151.20
2019-02-15T12:21:09.657Z,150.80
2019-02-15T12:23:41.212Z,133.40
2019-02-15T12:26:13.206Z,145.00
2019-02-15T12:28:44.878Z,144.40
2019-02-15T12:31:17.026Z,128.40
2019-02-15T12:33:48.861Z,138.60
2019-02-15T12:36:20.665Z,140.60
2019-02-15T12:38:52.409Z,123.20
2019-02-15T12:41:24.172Z,149.80
2019-02-15T12:43:55.642Z,145.00
2019-02-15T12:46:27.538Z,152.80
2019-02-15T12:48:59.153Z,161.60
2019-02-15T12:51:30.653Z,154.20
2019-02-15T12:54:03.122Z,165.20
2019-02-15T12:56:35.396Z,162.00
2019-02-15T12:59:07.090Z,148.00
2019-02-15T13:01:38.502Z,163.40
2019-02-15T13:04:10.233Z,159.40
2019-02-15T13:06:43.075Z,147.60
2019-02-15T13:09:14.767Z,164.20
2019-02-15T13:11:46.570Z,160.60
2019-02-15T13:14:18.290Z,158.80
2019-02-15T13:16:50.018Z,153.60
2019-02-15T13:19:21.773Z,152.20
2019-02-15T13:21:53.536Z,162.80
2019-02-15T13:24:25.189Z,174.20
2019-02-15T13:26:57.321Z,164.40
2019-02-15T13:29:28.939Z,158.40
2019-02-15T13:32:00.622Z,163.20
2019-02-15T13:34:32.302Z,163.00
2019-02-15T13:37:03.835Z,166.60
2019-02-15T13:39:35.174Z,165.80
2019-02-15T13:42:07.915Z,149.80
2019-02-15T13:44:39.402Z,150.80
2019-02-15T13:47:11.168Z,153.40
2019-02-15T13:49:42.764Z,152.60
2019-02-15T13:52:14.406Z,155.40
2019-02-15T13:54:45.775Z,153.20
2019-02-15T13:57:17.362Z,151.40
2019-02-15T13:59:48.847Z,155.60
2019-02-15T14:02:20.338Z,159.80
2019-02-15T14:04:52.139Z,156.40
2019-02-15T14:07:24.721Z,161.80
2019-02-15T14:09:56.228Z,163.40
2019-02-15T14:12:28.021Z,189.20
2019-02-15T14:14:59.500Z,197.80
2019-02-15T14:17:31.049Z,183.20
2019-02-15T14:20:02.394Z,180.60
2019-02-15T14:22:33.988Z,175.60
2019-02-15T14:25:05.724Z,165.40
2019-02-15T14:27:37.224Z,194.00
2019-02-15T14:30:09.563Z,186.00
2019-02-15T14:32:41.059Z,185.80
2019-02-15T14:35:13.360Z,194.00
2019-02-15T14:37:45.205Z,203.20
2019-02-15T14:40:16.777Z,203.00
2019-02-15T14:42:49.323Z,199.20
2019-02-15T14:45:21.342Z,200.60
2019-02-15T14:47:55.283Z,196.20
2019-02-15T14:50:26.422Z,187.20
2019-02-15T14:52:58.051Z,196.20
2019-02-15T14:55:29.683Z,195.20
2019-02-15T14:58:01.397Z,191.60
2019-02-15T15:00:32.720Z,211.60
2019-02-15T15:03:04.207Z,202.60
2019-02-15T15:05:35.861Z,198.00
2019-02-15T15:08:07.438Z,202.40
2019-02-15T15:10:39.107Z,215.40
2019-02-15T15:13:10.891Z,200.40
2019-02-15T15:15:42.494Z,214.80
2019-02-15T15:18:14.051Z,220.20
2019-02-15T15:20:45.739Z,194.60
2019-02-15T15:23:17.569Z,217.00
2019-02-15T15:25:48.870Z,229.20
2019-02-15T15:28:20.424Z,221.40
2019-02-15T15:30:52.172Z,205.00
2019-02-15T15:33:23.803Z,207.60
2019-02-15T15:35:55.287Z,217.00
2019-02-15T15:38:27.006Z,224.60
2019-02-15T15:40:58.955Z,222.20
2019-02-15T15:43:30.901Z,210.20
2019-02-15T15:46:02.612Z,208.60
2019-02-15T15:48:34.325Z,218.80
2019-02-15T15:51:05.863Z,218.80
2019-02-15T15:53:37.455Z,228.00
2019-02-15T15:56:08.955Z,223.20
2019-02-15T15:58:40.601Z,233.80
2019-02-15T16:01:12.067Z,211.80
2019-02-15T16:03:43.847Z,217.60
2019-02-15T16:06:24.034Z,237.40
2019-02-15T16:08:50.081Z,235.60
2019-02-15T16:11:21.439Z,213.80
2019-02-15T16:13:52.854Z,228.80
2019-02-15T16:16:24.523Z,226.20
2019-02-15T16:18:55.810Z,220.80
2019-02-15T16:21:27.437Z,237.00
2019-02-15T16:23:58.989Z,217.60
2019-02-15T16:26:30.440Z,240.40
2019-02-15T16:29:01.827Z,269.20
2019-02-15T16:31:33.431Z,250.20
2019-02-15T16:34:05.212Z,320.50
2019-02-15T16:36:37.094Z,358.50
2019-02-15T16:39:08.994Z,264.00
2019-02-15T16:41:40.840Z,258.40
2019-02-15T16:44:12.234Z,256.50
2019-02-15T16:46:43.677Z,238.80
2019-02-15T16:49:15.239Z,241.60
2019-02-15T16:51:47.004Z,246.60
2019-02-15T16:54:18.701Z,268.50
2019-02-15T16:56:50.330Z,250.60
2019-02-15T16:59:22.009Z,228.20
2019-02-15T17:01:53.378Z,240.40
2019-02-15T17:04:25.157Z,217.80
2019-02-15T17:06:56.730Z,216.60
2019-02-15T17:09:27.967Z,221.20
2019-02-15T17:11:59.641Z,233.00
2019-02-15T17:14:31.165Z,263.00
2019-02-15T17:17:02.526Z,268.00
2019-02-15T17:19:34.070Z,244.50
2019-02-15T17:22:05.646Z,247.25
2019-02-15T17:24:36.998Z,247.60
2019-02-15T17:27:08.469Z,203.80
2019-02-15T17:29:40.269Z,219.60
2019-02-15T17:32:11.819Z,227.80
2019-02-15T17:34:43.154Z,216.00
2019-02-15T17:37:14.674Z,211.60
2019-02-15T17:39:46.001Z,225.80
2019-02-15T17:42:17.327Z,228.60
2019-02-15T17:44:49.018Z,238.80
2019-02-15T17:47:20.504Z,222.00
2019-02-15T17:49:51.820Z,229.00
2019-02-15T17:52:23.372Z,221.20
2019-02-15T17:54:54.797Z,225.80
2019-02-15T17:57:26.494Z,220.00
2019-02-15T17:59:57.706Z,210.40
2019-02-15T18:02:29.399Z,236.40
2019-02-15T18:05:01.254Z,225.60
2019-02-15T18:07:32.437Z,214.80
2019-02-15T18:10:03.751Z,219.60
2019-02-15T18:12:35.029Z,218.60
2019-02-15T18:15:06.762Z,219.00
2019-02-15T18:17:38.416Z,192.00
2019-02-15T18:20:10.265Z,218.60
2019-02-15T18:22:41.836Z,245.20
2019-02-15T18:25:13.188Z,227.80
2019-02-15T18:27:44.878Z,215.40
2019-02-15T18:30:16.521Z,217.00
2019-02-15T18:32:48.196Z,210.20
2019-02-15T18:35:19.555Z,235.80
2019-02-15T18:37:51.375Z,221.80
2019-02-15T18:40:22.992Z,237.60
2019-02-15T18:42:54.249Z,223.00
2019-02-15T18:45:25.678Z,230.00
2019-02-15T18:47:56.898Z,240.20
2019-02-15T18:50:28.259Z,228.00
2019-02-15T18:52:59.691Z,236.20
2019-02-15T18:55:30.952Z,221.20
2019-02-15T18:58:02.403Z,213.50
2019-02-15T19:00:34.010Z,211.20
2019-02-15T19:03:06.069Z,216.40
2019-02-15T19:05:37.780Z,226.80
2019-02-15T19:08:09.415Z,203.60
2019-02-15T19:10:41.244Z,209.20
2019-02-15T19:13:12.669Z,209.00
2019-02-15T19:15:44.830Z,218.60
2019-02-15T19:18:16.513Z,205.00
2019-02-15T19:20:48.211Z,215.20
2019-02-15T19:23:19.504Z,226.20
2019-02-15T19:25:51.447Z,185.20
2019-02-15T19:28:22.810Z,211.60
2019-02-15T19:30:54.232Z,186.80
2019-02-15T19:33:25.584Z,214.60
2019-02-15T19:35:57.161Z,216.20
2019-02-15T19:38:28.579Z,214.60
2019-02-15T19:41:00.052Z,207.80
2019-02-15T19:43:31.738Z,204.20
2019-02-15T19:46:03.599Z,218.20
2019-02-15T19:48:34.911Z,201.00
2019-02-15T19:51:06.296Z,210.00
2019-02-15T19:53:37.574Z,203.20
2019-02-15T19:56:09.374Z,209.00
2019-02-15T19:58:43.791Z,208.80
2019-02-15T20:01:14.384Z,178.80
2019-02-15T20:03:46.037Z,225.40
2019-02-15T20:06:17.890Z,209.20
2019-02-15T20:08:49.493Z,211.40
2019-02-15T20:11:21.468Z,211.40
2019-02-15T20:13:52.755Z,179.80
2019-02-15T20:16:24.728Z,201.00
2019-02-15T20:18:56.138Z,185.60
2019-02-15T20:21:27.856Z,209.40
2019-02-15T20:23:59.715Z,184.40
2019-02-15T20:26:31.345Z,190.60
2019-02-15T20:29:02.918Z,210.40
2019-02-15T20:31:34.739Z,182.60
2019-02-15T20:34:06.496Z,195.80
2019-02-15T20:36:38.252Z,148.00
2019-02-15T20:39:12.754Z,185.80
2019-02-15T20:41:44.916Z,184.00
2019-02-15T20:44:16.758Z,194.00
2019-02-15T20:46:48.448Z,186.60
2019-02-15T20:49:20.272Z,183.40
2019-02-15T20:51:51.997Z,172.60
2019-02-15T20:54:23.976Z,171.20
2019-02-15T20:56:55.688Z,185.60
2019-02-15T20:59:27.398Z,175.20
2019-02-15T21:01:58.855Z,178.40
2019-02-15T21:04:30.521Z,174.00
2019-02-15T21:07:02.173Z,170.80
2019-02-15T21:09:33.700Z,158.00
2019-02-15T21:12:05.266Z,171.20
2019-02-15T21:14:36.652Z,172.60
2019-02-15T21:17:08.237Z,161.00
2019-02-15T21:19:40.154Z,164.60
2019-02-15T21:22:11.881Z,165.20
2019-02-15T21:24:43.511Z,177.80
2019-02-15T21:27:14.935Z,184.60
2019-02-15T21:29:46.503Z,187.80
2019-02-15T21:32:17.972Z,184.00
2019-02-15T21:34:49.732Z,193.00
2019-02-15T21:37:21.095Z,166.60
2019-02-15T21:39:52.714Z,166.20
2019-02-15T21:42:24.408Z,175.00
2019-02-15T21:44:56.256Z,180.00
2019-02-15T21:47:27.805Z,179.40
2019-02-15T21:49:59.890Z,171.20
2019-02-15T21:52:31.338Z,177.20
2019-02-15T21:55:02.913Z,178.20
2019-02-15T21:57:34.392Z,184.60
2019-02-15T22:00:06.971Z,154.80
2019-02-15T22:02:39.786Z,174.80
2019-02-15T22:05:11.290Z,174.60
2019-02-15T22:07:42.594Z,171.20
2019-02-15T22:10:14.331Z,182.20
2019-02-15T22:12:46.378Z,177.80
2019-02-15T22:15:18.126Z,161.60
2019-02-15T22:17:50.037Z,184.20
2019-02-15T22:20:26.823Z,158.20
2019-02-15T22:22:55.141Z,167.00
2019-02-15T22:25:26.582Z,184.40
2019-02-15T22:27:58.039Z,166.00
2019-02-15T22:30:29.847Z,178.20
2019-02-15T22:33:01.489Z,163.40
2019-02-15T22:35:32.901Z,187.20
2019-02-15T22:38:04.848Z,197.40
2019-02-15T22:40:38.019Z,189.40
2019-02-15T22:43:16.016Z,173.40
2019-02-15T22:45:47.538Z,197.20
2019-02-15T22:48:19.233Z,181.20
2019-02-15T22:50:51.718Z,164.00
2019-02-15T22:53:23.401Z,180.40
2019-02-15T22:55:55.109Z,161.20
2019-02-15T22:58:26.301Z,195.20
2019-02-15T23:01:06.900Z,191.60
2019-02-15T23:03:38.729Z,186.60
2019-02-15T23:06:10.608Z,170.40
2019-02-15T23:08:42.551Z,189.80
2019-02-15T23:11:14.314Z,174.60
2019-02-15T23:13:46.134Z,178.00
2019-02-15T23:16:19.227Z,167.40
2019-02-15T23:18:50.662Z,179.60
2019-02-15T23:21:22.477Z,166.40
2019-02-15T23:23:54.171Z,165.40
2019-02-15T23:26:25.452Z,167.20
2019-02-15T23:28:56.901Z,170.00
2019-02-15T23:31:28.381Z,160.40
2019-02-15T23:33:59.673Z,159.00
2019-02-15T23:36:31.160Z,159.60
2019-02-15T23:39:03.004Z,150.20
2019-02-15T23:41:35.984Z,168.80
2019-02-15T23:44:07.534Z,149.80
2019-02-15T23:46:39.312Z,151.00
2019-02-15T23:49:10.615Z,164.00
2019-02-15T23:51:42.486Z,158.60
2019-02-15T23:54:13.972Z,162.40
2019-02-15T23:56:45.560Z,140.20
2019-02-15T23:59:16.904Z,138.00
